createdAt,value
2023-03-31T00:00:18.773Z,45.53
2023-03-31T00:02:46.222Z,51.73
2023-03-31T00:05:18.031Z,59.50
2023-03-31T00:07:46.162Z,37.50
2023-03-31T00:10:18.428Z,49.13
2023-03-31T00:12:46.079Z,44.17
2023-03-31T00:15:13.023Z,46.37
2023-03-31T00:17:40.041Z,44.97
2023-03-31T00:20:12.346Z,43.73
2023-03-31T00:22:42.326Z,38.07
2023-03-31T00:25:13.896Z,49.37
2023-03-31T00:27:44.434Z,43.73
2023-03-31T00:30:16.150Z,46.93
2023-03-31T00:32:42.900Z,40.57
2023-03-31T00:35:10.150Z,42.23
2023-03-31T00:37:37.079Z,35.40
2023-03-31T00:40:09.310Z,34.53
2023-03-31T00:42:44.039Z,34.60
2023-03-31T00:45:14.028Z,45.73
2023-03-31T00:47:47.681Z,30.23
2023-03-31T00:50:23.452Z,32.60
2023-03-31T00:52:55.973Z,29.07
2023-03-31T00:55:30.900Z,30.60
2023-03-31T00:57:58.034Z,22.87
2023-03-31T01:00:24.712Z,33.17
2023-03-31T01:02:56.217Z,30.83
2023-03-31T01:05:27.776Z,20.00
2023-03-31T01:07:56.161Z,26.97
2023-03-31T01:10:23.226Z,22.43
2023-03-31T01:12:54.236Z,33.10
2023-03-31T01:15:22.101Z,37.53
2023-03-31T01:17:51.218Z,29.83
2023-03-31T01:20:24.558Z,30.37
2023-03-31T01:23:00.495Z,31.50
2023-03-31T01:26:24.520Z,30.23
2023-03-31T01:29:12.378Z,29.57
2023-03-31T01:31:57.252Z,36.97
2023-03-31T01:34:48.200Z,36.13
2023-03-31T01:37:26.986Z,31.37
2023-03-31T01:40:09.678Z,32.97
2023-03-31T01:42:44.729Z,35.77
2023-03-31T01:45:26.481Z,31.30
2023-03-31T01:48:03.017Z,30.47
2023-03-31T01:50:35.361Z,31.93
2023-03-31T01:53:11.075Z,36.13
2023-03-31T01:55:42.818Z,39.63
2023-03-31T01:58:16.892Z,38.87
2023-03-31T02:00:56.977Z,42.20
2023-03-31T02:03:31.041Z,43.77
2023-03-31T02:06:19.326Z,29.80
2023-03-31T02:08:55.032Z,41.57
2023-03-31T02:11:22.922Z,32.40
2023-03-31T02:13:53.102Z,42.90
2023-03-31T02:16:26.313Z,43.33
2023-03-31T02:19:02.420Z,40.27
2023-03-31T02:21:33.373Z,33.47
2023-03-31T02:24:08.969Z,31.63
2023-03-31T02:26:57.492Z,31.13
2023-03-31T02:29:24.243Z,31.73
2023-03-31T02:32:06.017Z,38.10
2023-03-31T02:34:32.686Z,33.53
2023-03-31T02:36:59.735Z,34.67
2023-03-31T02:39:32.627Z,38.40
2023-03-31T02:42:02.338Z,36.07
2023-03-31T02:44:29.114Z,34.30
2023-03-31T02:46:55.862Z,39.03
2023-03-31T02:49:22.642Z,32.83
2023-03-31T02:52:17.183Z,36.13
2023-03-31T02:55:17.468Z,37.30
2023-03-31T02:57:59.116Z,34.97
2023-03-31T03:00:49.877Z,39.80
2023-03-31T03:03:27.422Z,34.50
2023-03-31T03:06:05.855Z,35.67
2023-03-31T03:08:55.659Z,35.53
2023-03-31T03:11:40.646Z,31.80
2023-03-31T03:14:40.798Z,38.30
2023-03-31T03:17:35.188Z,41.63
2023-03-31T03:20:07.941Z,36.60
2023-03-31T03:22:35.781Z,31.67
2023-03-31T03:25:02.413Z,31.40
2023-03-31T03:27:29.180Z,28.27
2023-03-31T03:29:56.308Z,44.20
2023-03-31T03:32:23.107Z,37.17
2023-03-31T03:34:49.816Z,38.70
2023-03-31T03:37:16.460Z,33.33
2023-03-31T03:39:43.136Z,42.10
2023-03-31T03:42:09.806Z,34.83
2023-03-31T03:44:36.414Z,33.93
2023-03-31T03:47:03.319Z,41.17
2023-03-31T03:49:30.109Z,42.27
2023-03-31T03:51:56.799Z,29.63
2023-03-31T03:54:23.560Z,28.53
2023-03-31T03:56:50.320Z,32.53
2023-03-31T03:59:17.138Z,33.07
2023-03-31T04:01:43.854Z,34.87
2023-03-31T04:04:10.660Z,38.53
2023-03-31T04:06:37.523Z,36.03
2023-03-31T04:09:05.407Z,43.10
2023-03-31T04:11:32.849Z,36.80
2023-03-31T04:13:59.612Z,28.50
2023-03-31T04:16:26.352Z,38.63
2023-03-31T04:18:56.760Z,41.53
2023-03-31T04:21:23.990Z,39.50
2023-03-31T04:23:58.925Z,29.97
2023-03-31T04:26:30.920Z,33.50
2023-03-31T04:29:01.394Z,29.40
2023-03-31T04:31:30.796Z,34.50
2023-03-31T04:34:02.615Z,32.67
2023-03-31T04:36:31.440Z,28.60
2023-03-31T04:38:58.159Z,37.17
2023-03-31T04:41:27.998Z,36.17
2023-03-31T04:43:54.784Z,39.63
2023-03-31T04:46:22.085Z,42.10
2023-03-31T04:48:48.857Z,33.77
2023-03-31T04:51:16.395Z,33.10
2023-03-31T04:53:43.176Z,54.27
2023-03-31T04:56:10.015Z,35.37
2023-03-31T04:58:36.878Z,28.40
2023-03-31T05:01:06.416Z,33.20
2023-03-31T05:03:33.647Z,31.90
2023-03-31T05:06:01.241Z,37.23
2023-03-31T05:08:27.911Z,26.73
2023-03-31T05:10:54.544Z,38.10
2023-03-31T05:13:21.289Z,31.03
2023-03-31T05:15:50.752Z,38.87
2023-03-31T05:18:18.480Z,35.20
2023-03-31T05:20:45.336Z,26.20
2023-03-31T05:23:12.028Z,31.10
2023-03-31T05:25:38.696Z,44.00
2023-03-31T05:28:06.072Z,25.90
2023-03-31T05:30:32.832Z,31.43
2023-03-31T05:32:59.688Z,28.57
2023-03-31T05:35:26.613Z,34.47
2023-03-31T05:37:53.316Z,43.33
2023-03-31T05:40:20.078Z,35.93
2023-03-31T05:42:46.750Z,36.20
2023-03-31T05:45:13.828Z,36.37
2023-03-31T05:47:40.695Z,31.80
2023-03-31T05:50:09.093Z,35.73
2023-03-31T05:52:36.357Z,39.47
2023-03-31T05:55:04.371Z,29.57
2023-03-31T05:57:31.440Z,44.50
2023-03-31T05:59:58.366Z,44.93
2023-03-31T06:02:25.108Z,48.33
2023-03-31T06:04:52.157Z,37.10
2023-03-31T06:07:19.250Z,26.57
2023-03-31T06:09:46.509Z,34.63
2023-03-31T06:12:13.149Z,41.50
2023-03-31T06:14:39.836Z,23.67
2023-03-31T06:17:07.330Z,28.47
2023-03-31T06:19:34.547Z,32.33
2023-03-31T06:22:01.666Z,31.57
2023-03-31T06:24:28.450Z,30.20
2023-03-31T06:26:55.257Z,32.40
2023-03-31T06:29:22.081Z,35.00
2023-03-31T06:31:48.745Z,33.50
2023-03-31T06:34:15.682Z,29.43
2023-03-31T06:36:42.272Z,27.73
2023-03-31T06:39:08.941Z,24.13
2023-03-31T06:41:35.663Z,30.77
2023-03-31T06:44:02.354Z,25.90
2023-03-31T06:46:29.040Z,31.60
2023-03-31T06:48:55.777Z,28.60
2023-03-31T06:51:22.526Z,24.17
2023-03-31T06:53:49.312Z,28.63
2023-03-31T06:56:16.312Z,31.83
2023-03-31T06:58:43.015Z,36.30
2023-03-31T07:01:11.472Z,28.80
2023-03-31T07:03:38.455Z,39.07
2023-03-31T07:06:05.534Z,24.60
2023-03-31T07:08:32.759Z,29.27
2023-03-31T07:11:01.253Z,22.33
2023-03-31T07:13:28.932Z,30.40
2023-03-31T07:15:56.261Z,28.87
2023-03-31T07:18:34.234Z,29.20
2023-03-31T07:21:02.037Z,28.20
2023-03-31T07:23:28.886Z,28.13
2023-03-31T07:25:55.575Z,28.17
2023-03-31T07:28:22.257Z,26.73
2023-03-31T07:30:49.171Z,19.47
2023-03-31T07:33:15.963Z,20.80
2023-03-31T07:35:42.721Z,31.23
2023-03-31T07:38:11.052Z,25.53
2023-03-31T07:40:38.142Z,24.50
2023-03-31T07:43:05.956Z,30.57
2023-03-31T07:45:33.516Z,19.43
2023-03-31T07:48:00.440Z,20.47
2023-03-31T07:50:27.365Z,25.57
2023-03-31T07:52:54.334Z,34.03
2023-03-31T07:55:27.798Z,27.33
2023-03-31T07:57:54.795Z,22.50
2023-03-31T08:00:21.987Z,24.67
2023-03-31T08:02:48.798Z,30.50
2023-03-31T08:05:17.951Z,23.43
2023-03-31T08:07:47.198Z,30.67
2023-03-31T08:10:23.775Z,22.97
2023-03-31T08:12:50.505Z,24.00
2023-03-31T08:15:17.572Z,19.77
2023-03-31T08:17:44.528Z,31.47
2023-03-31T08:20:11.994Z,25.10
2023-03-31T08:22:40.339Z,22.83
2023-03-31T08:25:08.609Z,26.97
2023-03-31T08:27:36.526Z,31.87
2023-03-31T08:30:04.678Z,22.97
2023-03-31T08:32:32.610Z,22.37
2023-03-31T08:34:59.743Z,23.83
2023-03-31T08:37:28.292Z,25.43
2023-03-31T08:39:56.036Z,25.87
2023-03-31T08:42:57.855Z,24.63
2023-03-31T08:45:30.585Z,32.67
2023-03-31T08:48:28.274Z,25.03
2023-03-31T08:51:01.516Z,20.13
2023-03-31T08:53:41.076Z,23.90
2023-03-31T08:56:14.817Z,25.63
2023-03-31T08:58:46.287Z,27.03
2023-03-31T09:01:47.906Z,24.00
2023-03-31T09:04:33.347Z,28.93
2023-03-31T09:07:47.061Z,22.90
2023-03-31T09:10:38.548Z,24.27
2023-03-31T09:13:14.123Z,27.37
2023-03-31T09:15:50.638Z,27.47
2023-03-31T09:18:38.699Z,28.33
2023-03-31T09:21:13.216Z,30.00
2023-03-31T09:23:46.619Z,29.80
2023-03-31T09:26:24.057Z,21.87
2023-03-31T09:28:53.585Z,23.90
2023-03-31T09:31:22.434Z,27.07
2023-03-31T09:33:52.887Z,25.37
2023-03-31T09:36:24.486Z,21.03
2023-03-31T09:38:51.793Z,26.87
2023-03-31T09:41:21.888Z,23.67
2023-03-31T09:43:49.730Z,20.37
2023-03-31T09:46:21.888Z,27.33
2023-03-31T09:48:54.905Z,20.37
2023-03-31T09:51:29.859Z,28.17
2023-03-31T09:54:28.982Z,26.00
2023-03-31T09:56:55.872Z,27.30
2023-03-31T09:59:34.257Z,22.80
2023-03-31T10:02:04.518Z,26.10
2023-03-31T10:04:34.582Z,28.50
2023-03-31T10:07:04.838Z,23.73
2023-03-31T10:09:34.338Z,26.10
2023-03-31T10:12:07.278Z,28.83
2023-03-31T10:14:41.658Z,29.30
2023-03-31T10:17:19.705Z,26.87
2023-03-31T10:20:06.431Z,21.20
2023-03-31T10:22:33.195Z,23.67
2023-03-31T10:25:29.345Z,22.30
2023-03-31T10:27:57.369Z,19.00
2023-03-31T10:30:35.469Z,21.63
2023-03-31T10:33:21.958Z,19.53
2023-03-31T10:35:54.730Z,22.93
2023-03-31T10:38:33.111Z,14.93
2023-03-31T10:41:00.982Z,13.27
2023-03-31T10:43:33.572Z,12.37
2023-03-31T10:46:00.659Z,9.57
2023-03-31T10:48:31.109Z,11.70
2023-03-31T10:51:21.108Z,7.77
2023-03-31T10:53:52.913Z,9.37
2023-03-31T10:56:31.784Z,7.73
2023-03-31T10:59:29.859Z,11.67
2023-03-31T11:02:11.732Z,9.33
2023-03-31T11:05:13.328Z,14.97
2023-03-31T11:07:58.971Z,11.53
2023-03-31T11:10:28.511Z,13.23
2023-03-31T11:13:07.433Z,14.40
2023-03-31T11:15:59.317Z,16.07
2023-03-31T11:18:51.864Z,14.90
2023-03-31T11:21:34.030Z,12.00
2023-03-31T11:24:09.749Z,14.50
2023-03-31T11:26:45.707Z,13.93
2023-03-31T11:29:34.420Z,14.77
2023-03-31T11:32:22.794Z,12.73
2023-03-31T11:35:00.271Z,11.50
2023-03-31T11:38:01.555Z,9.47
2023-03-31T11:40:57.481Z,12.10
2023-03-31T11:43:36.509Z,13.63
2023-03-31T11:46:06.531Z,9.17
2023-03-31T11:48:48.142Z,11.47
2023-03-31T11:51:24.908Z,7.23
2023-03-31T11:53:54.613Z,6.10
2023-03-31T11:56:24.714Z,5.30
2023-03-31T11:58:58.911Z,2.83
2023-03-31T12:01:42.525Z,4.67
2023-03-31T12:04:18.202Z,6.70
2023-03-31T12:06:46.671Z,4.00
2023-03-31T12:09:24.128Z,3.43
2023-03-31T12:11:57.819Z,6.07
2023-03-31T12:14:24.415Z,4.00
2023-03-31T12:17:27.604Z,7.27
2023-03-31T12:20:10.643Z,5.37
2023-03-31T12:22:43.309Z,5.47
2023-03-31T12:25:15.628Z,3.93
2023-03-31T12:27:50.517Z,3.33
2023-03-31T12:30:42.229Z,5.83
2023-03-31T12:33:30.748Z,4.83
2023-03-31T12:36:03.589Z,4.53
2023-03-31T12:38:55.287Z,5.90
2023-03-31T12:41:38.298Z,4.40
2023-03-31T12:44:16.833Z,7.53
2023-03-31T12:47:13.929Z,6.30
2023-03-31T12:49:40.546Z,6.17
2023-03-31T12:52:43.265Z,3.87
2023-03-31T12:55:28.955Z,3.80
2023-03-31T12:58:25.016Z,2.73
2023-03-31T13:01:14.827Z,4.17
2023-03-31T13:03:49.740Z,3.90
2023-03-31T13:06:25.568Z,2.97
2023-03-31T13:08:59.302Z,3.07
2023-03-31T13:11:38.170Z,2.97
2023-03-31T13:14:19.846Z,4.07
2023-03-31T13:16:47.989Z,4.93
2023-03-31T13:19:34.602Z,5.43
2023-03-31T13:22:03.715Z,3.37
2023-03-31T13:24:32.258Z,2.63
2023-03-31T13:27:19.992Z,4.27
2023-03-31T13:29:46.715Z,2.97
2023-03-31T13:32:24.312Z,4.43
2023-03-31T13:35:07.710Z,2.43
2023-03-31T13:37:58.836Z,4.23
2023-03-31T13:40:48.390Z,2.70
2023-03-31T13:43:22.868Z,3.27
2023-03-31T13:45:52.732Z,3.97
2023-03-31T13:48:34.738Z,4.17
2023-03-31T13:51:13.692Z,2.97
2023-03-31T13:53:57.737Z,3.13
2023-03-31T13:56:33.583Z,3.10
2023-03-31T13:59:21.527Z,2.63
2023-03-31T14:02:21.268Z,2.27
2023-03-31T14:04:47.871Z,2.80
2023-03-31T14:07:20.364Z,3.73
2023-03-31T14:09:49.973Z,4.90
2023-03-31T14:12:27.207Z,3.83
2023-03-31T14:14:54.864Z,2.83
2023-03-31T14:17:26.225Z,2.57
2023-03-31T14:20:10.582Z,2.63
2023-03-31T14:22:46.318Z,3.70
2023-03-31T14:25:28.136Z,3.10
2023-03-31T14:28:10.158Z,8.40
2023-03-31T14:30:52.816Z,4.30
2023-03-31T14:33:27.692Z,4.37
2023-03-31T14:36:01.995Z,4.27
2023-03-31T14:38:30.098Z,4.93
2023-03-31T14:41:00.944Z,4.17
2023-03-31T14:43:33.524Z,4.10
2023-03-31T14:46:08.200Z,5.40
2023-03-31T14:48:45.127Z,4.67
2023-03-31T14:51:15.501Z,3.77
2023-03-31T14:53:45.495Z,5.43
2023-03-31T14:56:21.358Z,3.70
2023-03-31T14:58:51.747Z,5.33
2023-03-31T15:01:24.439Z,4.57
2023-03-31T15:03:53.473Z,5.40
2023-03-31T15:06:20.499Z,4.00
2023-03-31T15:08:47.514Z,7.83
2023-03-31T15:11:19.630Z,4.53
2023-03-31T15:14:03.717Z,3.80
2023-03-31T15:16:35.233Z,5.67
2023-03-31T15:19:11.091Z,4.50
2023-03-31T15:21:38.908Z,5.03
2023-03-31T15:24:06.039Z,3.63
2023-03-31T15:26:41.716Z,6.90
2023-03-31T15:29:23.072Z,6.37
2023-03-31T15:31:49.941Z,16.53
2023-03-31T15:34:27.221Z,6.93
2023-03-31T15:36:56.335Z,8.37
2023-03-31T15:39:29.939Z,11.33
2023-03-31T15:41:57.896Z,6.80
2023-03-31T15:44:54.027Z,3.77
2023-03-31T15:47:25.428Z,3.23
2023-03-31T15:50:14.260Z,2.60
2023-03-31T15:52:49.882Z,2.60
2023-03-31T15:55:31.723Z,2.23
2023-03-31T15:58:00.861Z,2.00
2023-03-31T16:00:33.540Z,2.30
2023-03-31T16:03:03.875Z,4.33
2023-03-31T16:05:54.869Z,5.47
2023-03-31T16:08:32.673Z,4.40
2023-03-31T16:11:08.146Z,5.33
2023-03-31T16:13:40.874Z,4.57
2023-03-31T16:16:15.279Z,5.23
2023-03-31T16:18:55.594Z,3.63
2023-03-31T16:21:27.325Z,4.07
2023-03-31T16:23:57.293Z,4.27
2023-03-31T16:26:28.363Z,6.20
2023-03-31T16:28:57.619Z,3.80
2023-03-31T16:31:34.472Z,3.20
2023-03-31T16:34:02.729Z,5.67
2023-03-31T16:36:29.708Z,3.47
2023-03-31T16:38:58.722Z,3.23
2023-03-31T16:41:28.874Z,2.93
2023-03-31T16:43:55.628Z,4.60
2023-03-31T16:46:24.027Z,2.93
2023-03-31T16:48:51.835Z,2.93
2023-03-31T16:51:19.325Z,6.30
2023-03-31T16:53:52.818Z,4.40
2023-03-31T16:56:19.602Z,3.70
2023-03-31T16:58:50.293Z,4.10
2023-03-31T17:01:17.217Z,5.53
2023-03-31T17:03:47.584Z,5.37
2023-03-31T17:06:14.601Z,5.03
2023-03-31T17:08:42.317Z,5.27
2023-03-31T17:11:12.381Z,5.17
2023-03-31T17:13:40.687Z,3.53
2023-03-31T17:16:16.326Z,4.70
2023-03-31T17:18:46.595Z,5.03
2023-03-31T17:21:15.690Z,4.70
2023-03-31T17:23:42.857Z,3.87
2023-03-31T17:26:13.602Z,6.37
2023-03-31T17:28:41.670Z,6.50
2023-03-31T17:31:13.730Z,4.13
2023-03-31T17:33:41.871Z,3.70
2023-03-31T17:36:09.928Z,5.00
2023-03-31T17:38:38.516Z,4.60
2023-03-31T17:41:12.754Z,6.27
2023-03-31T17:43:40.147Z,7.70
2023-03-31T17:46:13.579Z,5.83
2023-03-31T17:48:47.059Z,4.63
2023-03-31T17:51:43.031Z,5.60
2023-03-31T17:54:13.185Z,7.67
2023-03-31T17:56:39.968Z,5.20
2023-03-31T17:59:37.617Z,4.87
2023-03-31T18:02:13.771Z,5.67
2023-03-31T18:04:40.569Z,6.30
2023-03-31T18:07:07.532Z,6.23
2023-03-31T18:09:34.662Z,4.93
2023-03-31T18:12:01.455Z,10.47
2023-03-31T18:14:28.649Z,5.57
2023-03-31T18:16:55.929Z,6.30
2023-03-31T18:19:26.053Z,5.13
2023-03-31T18:21:53.010Z,5.57
2023-03-31T18:24:20.635Z,7.17
2023-03-31T18:26:47.370Z,9.13
2023-03-31T18:29:14.390Z,6.07
2023-03-31T18:31:41.829Z,5.53
2023-03-31T18:34:09.112Z,7.43
2023-03-31T18:36:36.001Z,4.63
2023-03-31T18:39:02.755Z,10.17
2023-03-31T18:41:29.934Z,6.13
2023-03-31T18:43:56.639Z,7.37
2023-03-31T18:46:23.492Z,7.90
2023-03-31T18:48:51.323Z,6.10
2023-03-31T18:51:18.544Z,6.00
2023-03-31T18:53:48.774Z,9.40
2023-03-31T18:56:16.127Z,7.83
2023-03-31T18:58:44.067Z,8.23
2023-03-31T19:01:10.867Z,8.63
2023-03-31T19:03:42.550Z,4.70
2023-03-31T19:06:20.978Z,7.13
2023-03-31T19:08:56.602Z,8.67
2023-03-31T19:11:32.121Z,8.00
2023-03-31T19:13:59.380Z,7.10
2023-03-31T19:16:29.808Z,8.67
2023-03-31T19:18:57.091Z,9.13
2023-03-31T19:21:24.800Z,10.60
2023-03-31T19:23:55.892Z,7.47
2023-03-31T19:26:22.858Z,5.13
2023-03-31T19:28:50.261Z,7.00
2023-03-31T19:31:18.194Z,5.90
2023-03-31T19:33:44.988Z,9.00
2023-03-31T19:36:12.064Z,7.80
2023-03-31T19:38:39.604Z,9.83
2023-03-31T19:41:12.574Z,5.67
2023-03-31T19:43:39.757Z,8.57
2023-03-31T19:46:06.735Z,8.47
2023-03-31T19:48:34.013Z,7.97
2023-03-31T19:51:06.264Z,8.67
2023-03-31T19:53:33.297Z,7.53
2023-03-31T19:56:12.186Z,8.03
2023-03-31T19:58:39.644Z,5.90
2023-03-31T20:01:16.088Z,9.27
2023-03-31T20:03:43.483Z,10.10
2023-03-31T20:06:14.923Z,7.60
2023-03-31T20:08:43.102Z,11.87
2023-03-31T20:11:13.485Z,10.70
2023-03-31T20:13:42.181Z,7.67
2023-03-31T20:16:14.837Z,10.80
2023-03-31T20:18:47.930Z,8.87
2023-03-31T20:21:18.151Z,10.30
2023-03-31T20:23:45.527Z,8.17
2023-03-31T20:26:19.286Z,8.83
2023-03-31T20:28:46.854Z,8.73
2023-03-31T20:31:17.859Z,9.40
2023-03-31T20:33:46.171Z,12.67
2023-03-31T20:36:17.168Z,9.80
2023-03-31T20:38:46.321Z,7.00
2023-03-31T20:41:14.038Z,11.43
2023-03-31T20:43:41.389Z,10.83
2023-03-31T20:46:09.642Z,12.73
2023-03-31T20:48:39.708Z,12.03
2023-03-31T20:51:08.537Z,10.57
2023-03-31T20:53:42.206Z,13.30
2023-03-31T20:56:15.678Z,10.37
2023-03-31T20:58:44.398Z,11.73
2023-03-31T21:01:12.485Z,14.40
2023-03-31T21:03:39.877Z,10.07
2023-03-31T21:06:11.655Z,14.33
2023-03-31T21:08:40.835Z,13.97
2023-03-31T21:11:07.873Z,14.40
2023-03-31T21:13:35.042Z,11.73
2023-03-31T21:16:04.354Z,12.20
2023-03-31T21:18:33.575Z,9.13
2023-03-31T21:21:02.592Z,13.10
2023-03-31T21:23:30.630Z,14.53
2023-03-31T21:26:01.722Z,15.97
2023-03-31T21:28:34.613Z,18.83
2023-03-31T21:31:04.458Z,14.73
2023-03-31T21:33:33.437Z,15.47
2023-03-31T21:36:00.475Z,13.97
2023-03-31T21:38:30.566Z,15.73
2023-03-31T21:40:57.581Z,19.07
2023-03-31T21:43:25.865Z,15.83
2023-03-31T21:45:57.239Z,16.47
2023-03-31T21:48:26.484Z,15.37
2023-03-31T21:50:54.898Z,19.07
2023-03-31T21:53:24.832Z,19.93
2023-03-31T21:55:55.119Z,19.77
2023-03-31T21:58:28.385Z,19.37
2023-03-31T22:01:00.346Z,20.10
2023-03-31T22:03:29.039Z,20.07
2023-03-31T22:05:57.194Z,24.13
2023-03-31T22:08:25.451Z,20.23
2023-03-31T22:10:53.101Z,21.27
2023-03-31T22:13:21.442Z,19.57
2023-03-31T22:15:48.632Z,25.30
2023-03-31T22:18:17.081Z,21.40
2023-03-31T22:20:45.140Z,20.97
2023-03-31T22:23:12.056Z,21.63
2023-03-31T22:25:38.957Z,26.70
2023-03-31T22:28:07.268Z,27.07
2023-03-31T22:30:35.155Z,27.00
2023-03-31T22:33:02.045Z,23.77
2023-03-31T22:35:29.276Z,27.53
2023-03-31T22:37:56.256Z,28.07
2023-03-31T22:40:24.068Z,26.17
2023-03-31T22:42:50.829Z,28.07
2023-03-31T22:45:17.613Z,26.67
2023-03-31T22:47:44.380Z,27.90
2023-03-31T22:50:12.011Z,30.30
2023-03-31T22:52:38.776Z,31.13
2023-03-31T22:55:06.243Z,30.40
2023-03-31T22:57:33.637Z,37.07
2023-03-31T23:00:00.803Z,43.20
2023-03-31T23:02:27.662Z,43.23
2023-03-31T23:04:54.434Z,45.20
2023-03-31T23:07:22.268Z,48.13
2023-03-31T23:09:49.161Z,52.87
2023-03-31T23:12:16.541Z,54.00
2023-03-31T23:14:43.401Z,54.80
2023-03-31T23:17:10.157Z,53.33
2023-03-31T23:19:38.842Z,51.17
2023-03-31T23:22:06.102Z,51.97
2023-03-31T23:24:33.231Z,56.37
2023-03-31T23:26:59.974Z,48.83
2023-03-31T23:29:27.367Z,51.00
2023-03-31T23:31:54.344Z,47.70
2023-03-31T23:34:21.314Z,50.50
2023-03-31T23:36:48.039Z,46.43
2023-03-31T23:39:14.872Z,40.53
2023-03-31T23:41:41.670Z,39.80
2023-03-31T23:44:08.377Z,32.80
2023-03-31T23:46:36.300Z,28.00
2023-03-31T23:49:04.850Z,32.60
2023-03-31T23:51:31.556Z,25.10
2023-03-31T23:53:58.392Z,26.27
2023-03-31T23:56:27.072Z,24.93
2023-03-31T23:58:54.070Z,24.50
